Etusivu
METAR-TAF:

METAR-TAF

Lentoasemat :

Salluit, Quebec, Kanada

Leveyspiiri: 62-11N, Pituuspiiri: 075-40W, korkeus merenpinnasta: 226 m

Tämänhetkinen sää

Tämä raportti tehtiin 28 minuuttia sitten, kello 13.00 UTC
Tuuli 9 kn idästä/koillisesta
Lämpötila -1°C
Kosteus 93%
Ilmanpaine 1019 hPa
Näkyvyys: 9.7 km
Pilvistä 1000 ft:n korkeudessa
heikkoa lumisadetta, utua

METAR: CYZG 211300Z 07009KT 6SM -SN BR OVC010 M01/M02 A3009 RMK ST8 CIG RAG VIA CYQB SLP210

Aika: 09:28 (13:28 UTC)

Sääennuste

Tämä raportti tehtiin 17 tuntia ja 25 minuuttia sitten, kello 20.03 UTC
Ennuste voimassa 20. päivästä klo 20 UTC - 20. päivään klo 21 UTC
Tuuli 8 kn pohjoisesta/koillisesta
Näkyvyys: 1.6 km
Pilvistä 300 ft:n korkeudessa
heikkoa lumisadetta, utua
Ajoittain
20. päivästä klo 20 UTC - 20. päivään klo 21 UTC
Näkyvyys: 4.8 km
Pilvistä 600 ft:n korkeudessa
utua

TAF: CYZG 202003Z 2020/2021 03008KT 1SM -SN BR OVC003 TEMPO 2020/2021 3SM BR OVC006 RMK NXT FCST WILL BE ISSUED AT 211345Z

Säähavainnot ja -ennusteet yli 4000 lentoasemalta (METAR- ja TAF-raportit).

Käytössä olevat sääasemat on merkitty karttaan keltaisilla ja punaisilla pisteillä.

Aseta hiiri pisteen päälle nähdäksesi sääaseman nimen.

Klikkaa sitten nähdäksesi säähavainnot ja -ennusteet.

Kartan vaihtaminen: klikkaa mustalla rastilla varustettuja vihreitä pisteitä, niin voit zoomata sisään; viivalla varustettua vihreää pistettä, niin voit zoomata ulos tai vihreitä nuolia, niin pääset viereisille kartoille.


METAR-TAF: